createdAt,value
2022-12-15T00:00:24.167Z,0
2022-12-15T00:02:03.942Z,0
2022-12-15T00:03:43.766Z,0
2022-12-15T00:05:23.504Z,0
2022-12-15T00:07:03.262Z,0
2022-12-15T00:08:43.041Z,0
2022-12-15T00:10:22.782Z,0
2022-12-15T00:12:02.619Z,0
2022-12-15T00:13:42.435Z,0
2022-12-15T00:15:22.099Z,0
2022-12-15T00:17:01.868Z,0
2022-12-15T00:18:41.637Z,0
2022-12-15T00:20:21.401Z,0
2022-12-15T00:22:01.193Z,0
2022-12-15T00:23:40.954Z,0
2022-12-15T00:25:20.723Z,0
2022-12-15T00:27:00.487Z,0
2022-12-15T00:28:40.276Z,0
2022-12-15T00:30:20.038Z,0
2022-12-15T00:31:59.789Z,0
2022-12-15T00:33:39.588Z,0
2022-12-15T00:35:19.348Z,0
2022-12-15T00:36:59.165Z,0
2022-12-15T00:38:38.964Z,0
2022-12-15T00:40:18.652Z,0
2022-12-15T00:41:58.406Z,0
2022-12-15T00:43:38.184Z,0
2022-12-15T00:45:17.974Z,0
2022-12-15T00:46:57.735Z,0
2022-12-15T00:48:37.500Z,0
2022-12-15T00:50:17.272Z,0
2022-12-15T00:51:57.050Z,0
2022-12-15T00:53:36.823Z,0
2022-12-15T00:55:16.590Z,0
2022-12-15T00:56:56.350Z,0
2022-12-15T00:58:36.187Z,0
2022-12-15T01:00:15.881Z,0
2022-12-15T01:01:55.655Z,0
2022-12-15T01:03:35.478Z,0
2022-12-15T01:05:15.191Z,0
2022-12-15T01:06:54.960Z,0
2022-12-15T01:08:34.856Z,0
2022-12-15T01:10:14.555Z,0
2022-12-15T01:11:54.284Z,0
2022-12-15T01:13:34.132Z,0
2022-12-15T01:15:13.820Z,0
2022-12-15T01:16:53.605Z,0
2022-12-15T01:18:33.365Z,0
2022-12-15T01:20:13.138Z,0
2022-12-15T01:21:52.900Z,0
2022-12-15T01:23:32.650Z,0
2022-12-15T01:25:12.445Z,0
2022-12-15T01:26:52.206Z,0
2022-12-15T01:28:31.961Z,0
2022-12-15T01:30:11.740Z,0
2022-12-15T01:31:51.504Z,0
2022-12-15T01:33:31.362Z,0
2022-12-15T01:35:11.046Z,0
2022-12-15T01:36:50.862Z,0
2022-12-15T01:38:30.586Z,0
2022-12-15T01:40:10.358Z,0
2022-12-15T01:41:50.136Z,0
2022-12-15T01:43:30.021Z,0
2022-12-15T01:45:09.656Z,0
2022-12-15T01:46:49.431Z,0
2022-12-15T01:48:29.213Z,0
2022-12-15T01:50:09.004Z,0
2022-12-15T01:51:48.742Z,0
2022-12-15T01:53:28.596Z,0
2022-12-15T01:55:08.365Z,0
2022-12-15T01:56:48.210Z,0
2022-12-15T01:58:27.836Z,0
2022-12-15T02:00:07.590Z,0
2022-12-15T02:01:47.363Z,0
2022-12-15T02:03:27.136Z,0
2022-12-15T02:05:06.890Z,0
2022-12-15T02:06:46.664Z,0
2022-12-15T02:08:26.477Z,0
2022-12-15T02:10:06.194Z,0
2022-12-15T02:11:45.963Z,0
2022-12-15T02:13:25.710Z,0
2022-12-15T02:15:05.488Z,0
2022-12-15T02:16:45.275Z,0
2022-12-15T02:18:25.036Z,0
2022-12-15T02:20:04.799Z,0
2022-12-15T02:21:44.560Z,0
2022-12-15T02:23:24.322Z,0
2022-12-15T02:25:04.086Z,0
2022-12-15T02:26:43.931Z,0
2022-12-15T02:28:23.662Z,0
2022-12-15T02:30:03.419Z,0
2022-12-15T02:31:43.154Z,0
2022-12-15T02:33:22.940Z,0
2022-12-15T02:35:02.716Z,0
2022-12-15T02:36:42.501Z,0
2022-12-15T02:38:22.248Z,0
2022-12-15T02:40:01.999Z,0
2022-12-15T02:41:41.749Z,0
2022-12-15T02:43:21.510Z,0
2022-12-15T02:45:01.311Z,0
2022-12-15T02:46:41.053Z,0
2022-12-15T02:48:20.824Z,0
2022-12-15T02:50:00.579Z,0
2022-12-15T02:51:40.358Z,0
2022-12-15T02:53:20.161Z,0
2022-12-15T02:54:59.896Z,0
2022-12-15T02:56:39.711Z,0
2022-12-15T02:58:19.427Z,0
2022-12-15T02:59:59.202Z,0
2022-12-15T03:01:38.966Z,0
2022-12-15T03:03:18.728Z,0
2022-12-15T03:04:58.508Z,0
2022-12-15T03:06:38.261Z,0
2022-12-15T03:08:18.036Z,0
2022-12-15T03:09:57.795Z,0
2022-12-15T03:11:37.599Z,0
2022-12-15T03:13:17.324Z,0
2022-12-15T03:14:57.154Z,0
2022-12-15T03:16:36.864Z,0
2022-12-15T03:18:16.623Z,0
2022-12-15T03:19:56.388Z,0
2022-12-15T03:21:36.169Z,0
2022-12-15T03:23:15.982Z,0
2022-12-15T03:24:55.690Z,0
2022-12-15T03:26:35.465Z,0
2022-12-15T03:28:15.229Z,0
2022-12-15T03:29:54.997Z,0
2022-12-15T03:31:34.756Z,0
2022-12-15T03:33:14.537Z,0
2022-12-15T03:34:54.296Z,0
2022-12-15T03:36:34.080Z,0
2022-12-15T03:38:13.823Z,0
2022-12-15T03:39:53.596Z,0
2022-12-15T03:41:33.587Z,0
2022-12-15T03:43:13.146Z,0
2022-12-15T03:44:52.886Z,0
2022-12-15T03:46:32.656Z,0
2022-12-15T03:48:12.427Z,0
2022-12-15T03:49:52.198Z,0
2022-12-15T03:51:31.986Z,0
2022-12-15T03:53:11.731Z,0
2022-12-15T03:54:51.502Z,0
2022-12-15T03:56:31.261Z,0
2022-12-15T03:58:11.042Z,0
2022-12-15T03:59:50.799Z,0
2022-12-15T04:01:30.561Z,0
2022-12-15T04:03:10.324Z,0
2022-12-15T04:04:50.111Z,0
2022-12-15T04:06:29.857Z,0
2022-12-15T04:08:09.626Z,0
2022-12-15T04:09:49.416Z,0
2022-12-15T04:11:29.200Z,0
2022-12-15T04:13:08.924Z,0
2022-12-15T04:14:48.700Z,0
2022-12-15T04:16:28.451Z,0
2022-12-15T04:18:08.246Z,0
2022-12-15T04:19:48.025Z,0
2022-12-15T04:21:27.761Z,0
2022-12-15T04:23:07.515Z,0
2022-12-15T04:24:47.291Z,0
2022-12-15T04:26:27.050Z,0
2022-12-15T04:28:06.828Z,0
2022-12-15T04:29:46.586Z,0
2022-12-15T04:31:26.364Z,0
2022-12-15T04:33:06.125Z,0
2022-12-15T04:34:45.903Z,0
2022-12-15T04:36:25.657Z,0
2022-12-15T04:38:05.412Z,0
2022-12-15T04:39:45.203Z,0
2022-12-15T04:41:24.952Z,0
2022-12-15T04:43:04.797Z,0
2022-12-15T04:44:44.475Z,0
2022-12-15T04:46:24.260Z,0
2022-12-15T04:48:04.020Z,0
2022-12-15T04:49:43.774Z,0
2022-12-15T04:51:23.569Z,0
2022-12-15T04:53:03.326Z,0
2022-12-15T04:54:43.086Z,0
2022-12-15T04:56:22.845Z,0
2022-12-15T04:58:02.701Z,0
2022-12-15T04:59:42.445Z,0
2022-12-15T05:01:22.156Z,0
2022-12-15T05:03:01.968Z,0
2022-12-15T05:04:41.740Z,0
2022-12-15T05:06:21.475Z,0
2022-12-15T05:08:01.219Z,0
2022-12-15T05:09:41.019Z,0
2022-12-15T05:11:20.752Z,0
2022-12-15T05:13:00.509Z,0
2022-12-15T05:14:40.306Z,0
2022-12-15T05:16:20.079Z,0
2022-12-15T05:17:59.862Z,0
2022-12-15T05:19:39.589Z,0
2022-12-15T05:21:19.376Z,0
2022-12-15T05:22:59.144Z,0
2022-12-15T05:24:38.978Z,0
2022-12-15T05:26:18.667Z,0
2022-12-15T05:27:58.415Z,0
2022-12-15T05:29:38.182Z,0
2022-12-15T05:31:17.970Z,0
2022-12-15T05:32:57.721Z,0
2022-12-15T05:34:37.484Z,0
2022-12-15T05:36:17.259Z,0
2022-12-15T05:37:57.018Z,0
2022-12-15T05:39:36.814Z,0
2022-12-15T05:41:16.545Z,0
2022-12-15T05:42:56.385Z,0
2022-12-15T05:44:36.100Z,0
2022-12-15T05:46:15.858Z,0
2022-12-15T05:47:55.616Z,0
2022-12-15T05:49:35.410Z,0
2022-12-15T05:51:15.152Z,0
2022-12-15T05:52:54.944Z,0
2022-12-15T05:54:34.684Z,0
2022-12-15T05:56:14.451Z,0
2022-12-15T05:57:54.246Z,0
2022-12-15T05:59:33.976Z,0
2022-12-15T06:01:13.756Z,0
2022-12-15T06:02:53.514Z,0
2022-12-15T06:04:33.280Z,0
2022-12-15T06:06:13.047Z,0
2022-12-15T06:07:52.809Z,0
2022-12-15T06:09:32.676Z,0
2022-12-15T06:11:12.384Z,0
2022-12-15T06:12:52.122Z,0
2022-12-15T06:14:31.884Z,0
2022-12-15T06:16:11.650Z,0
2022-12-15T06:17:51.405Z,0
2022-12-15T06:19:31.262Z,0
2022-12-15T06:21:10.940Z,0
2022-12-15T06:22:50.800Z,0
2022-12-15T06:24:30.535Z,0
2022-12-15T06:26:10.243Z,0
2022-12-15T06:27:50.011Z,0
2022-12-15T06:29:29.777Z,0
2022-12-15T06:31:09.545Z,0
2022-12-15T06:32:49.304Z,0
2022-12-15T06:34:29.061Z,0
2022-12-15T06:36:08.831Z,0
2022-12-15T06:37:48.616Z,0
2022-12-15T06:39:28.377Z,0
2022-12-15T06:41:08.132Z,0
2022-12-15T06:42:47.952Z,0
2022-12-15T06:44:27.721Z,0.03
2022-12-15T06:46:07.568Z,0.04
2022-12-15T06:47:47.220Z,0.01
2022-12-15T06:49:27.003Z,0.03
2022-12-15T06:51:06.741Z,0.02
2022-12-15T06:52:46.517Z,0.03
2022-12-15T06:54:26.374Z,0.01
2022-12-15T06:56:06.065Z,0.03
2022-12-15T06:57:45.831Z,0.02
2022-12-15T06:59:25.599Z,0.02
2022-12-15T07:01:05.368Z,0.03
2022-12-15T07:02:45.167Z,0.03
2022-12-15T07:04:25.018Z,0.05
2022-12-15T07:06:04.655Z,0.02
2022-12-15T07:07:44.428Z,0.05
2022-12-15T07:09:24.199Z,0.04
2022-12-15T07:11:03.984Z,0.04
2022-12-15T07:12:43.738Z,0.06
2022-12-15T07:14:23.657Z,0.07
2022-12-15T07:16:03.278Z,0.1
2022-12-15T07:17:43.036Z,0.08
2022-12-15T07:19:22.824Z,0.09
2022-12-15T07:21:02.620Z,0
2022-12-15T07:22:42.339Z,0.06
2022-12-15T07:26:01.980Z,0.14
2022-12-15T07:27:41.661Z,0.1
2022-12-15T07:29:21.482Z,0.1
2022-12-15T07:31:01.193Z,0.08
2022-12-15T07:32:40.968Z,0.17
2022-12-15T07:34:20.818Z,0.13
2022-12-15T07:36:00.523Z,0.11
2022-12-15T07:37:40.313Z,0.17
2022-12-15T07:39:20.112Z,0.18
2022-12-15T07:40:59.814Z,0.16
2022-12-15T07:42:39.594Z,0.2
2022-12-15T07:44:19.354Z,0.2
2022-12-15T07:45:59.154Z,0.29
2022-12-15T07:47:38.926Z,0.23
2022-12-15T07:49:18.866Z,0.25
2022-12-15T07:50:58.466Z,0.24
2022-12-15T07:52:38.218Z,0.19
2022-12-15T07:54:18.035Z,0.2
2022-12-15T07:55:57.749Z,0.22
2022-12-15T07:57:37.526Z,0.27
2022-12-15T07:59:17.305Z,0.22
2022-12-15T08:00:57.068Z,0.2
2022-12-15T08:02:36.856Z,0.22
2022-12-15T08:04:16.694Z,0.23
2022-12-15T08:05:56.412Z,0.22
2022-12-15T08:07:36.198Z,0.26
2022-12-15T08:09:15.991Z,0.23
2022-12-15T08:10:55.819Z,0.29
2022-12-15T08:12:35.454Z,0.27
2022-12-15T08:14:15.223Z,0.39
2022-12-15T08:15:54.996Z,0.36
2022-12-15T08:17:34.766Z,0.43
2022-12-15T08:19:14.554Z,0.37
2022-12-15T08:20:54.337Z,0.43
2022-12-15T08:22:34.077Z,0.44
2022-12-15T08:24:13.857Z,0.36
2022-12-15T08:25:53.611Z,0.46
2022-12-15T08:27:33.387Z,0.61
2022-12-15T08:29:13.173Z,0.56
2022-12-15T08:30:52.938Z,0.67
2022-12-15T08:32:32.694Z,0.67
2022-12-15T08:34:12.483Z,0.65
2022-12-15T08:35:52.229Z,0.69
2022-12-15T08:37:32.008Z,0.73
2022-12-15T08:39:11.779Z,0.73
2022-12-15T08:40:51.542Z,0.77
2022-12-15T08:42:31.322Z,0.81
2022-12-15T08:44:11.172Z,0.79
2022-12-15T08:45:50.845Z,0.41
2022-12-15T08:47:30.730Z,1.83
2022-12-15T08:49:10.402Z,1.88
2022-12-15T08:50:50.169Z,1.95
2022-12-15T08:52:29.923Z,1.79
2022-12-15T08:54:09.762Z,1.7
2022-12-15T08:55:49.481Z,1.63
2022-12-15T08:57:29.291Z,1.57
2022-12-15T08:59:09.079Z,1.54
2022-12-15T09:00:48.785Z,1.5
2022-12-15T09:02:28.546Z,1.48
2022-12-15T09:04:08.457Z,1.47
2022-12-15T09:05:48.092Z,1.42
2022-12-15T09:07:27.894Z,1.41
2022-12-15T09:09:07.624Z,1.41
2022-12-15T09:10:47.408Z,1.39
2022-12-15T09:12:27.166Z,1.4
2022-12-15T09:14:07.084Z,1.37
2022-12-15T09:15:46.709Z,1.36
2022-12-15T09:17:26.482Z,1.36
2022-12-15T09:19:06.271Z,1.36
2022-12-15T09:20:46.022Z,1.36
2022-12-15T09:22:25.796Z,1.33
2022-12-15T09:24:05.662Z,1.34
2022-12-15T09:25:45.326Z,1.35
2022-12-15T09:27:25.154Z,1.35
2022-12-15T09:29:04.873Z,1.35
2022-12-15T09:30:44.654Z,1.34
2022-12-15T09:32:24.514Z,1.32
2022-12-15T09:34:04.340Z,1.37
2022-12-15T09:35:43.986Z,1.34
2022-12-15T09:37:23.773Z,1.33
2022-12-15T09:39:03.519Z,1.36
2022-12-15T09:40:43.253Z,1.35
2022-12-15T09:42:23.046Z,1.36
2022-12-15T09:44:02.794Z,1.34
2022-12-15T09:45:42.644Z,1.32
2022-12-15T09:47:22.355Z,1.32
2022-12-15T09:49:02.173Z,1.35
2022-12-15T09:50:41.879Z,1.34
2022-12-15T09:52:21.670Z,1.34
2022-12-15T09:54:01.439Z,1.33
2022-12-15T09:55:41.253Z,1.38
2022-12-15T09:57:21.066Z,1.35
2022-12-15T09:59:00.900Z,1.33
2022-12-15T10:00:40.670Z,1.34
2022-12-15T10:02:20.475Z,1.37
2022-12-15T10:04:00.069Z,1.37
2022-12-15T10:05:40.032Z,1.37
2022-12-15T10:07:19.748Z,1.32
2022-12-15T10:08:59.533Z,1.36
2022-12-15T10:10:39.274Z,1.3
2022-12-15T10:12:19.151Z,1.34
2022-12-15T10:13:58.791Z,1.35
2022-12-15T10:15:38.539Z,1.32
2022-12-15T10:17:18.470Z,1.31
2022-12-15T10:18:58.135Z,1.33
2022-12-15T10:20:37.933Z,1.31
2022-12-15T10:22:17.685Z,1.34
2022-12-15T10:23:57.496Z,1.35
2022-12-15T10:25:37.204Z,1.36
2022-12-15T10:27:17.014Z,1.35
2022-12-15T10:28:56.815Z,1.35
2022-12-15T10:30:36.452Z,1.33
2022-12-15T10:32:16.325Z,1.36
2022-12-15T10:33:55.907Z,1.35
2022-12-15T10:35:35.859Z,1.34
2022-12-15T10:37:15.669Z,1.35
2022-12-15T10:38:55.421Z,1.3
2022-12-15T10:40:35.158Z,1.34
2022-12-15T10:42:14.948Z,1.35
2022-12-15T10:43:54.532Z,1.35
2022-12-15T10:45:34.462Z,1.35
2022-12-15T10:47:14.253Z,1.28
2022-12-15T10:48:54.079Z,1.35
2022-12-15T10:50:33.685Z,1.35
2022-12-15T10:52:13.549Z,1.37
2022-12-15T10:53:53.318Z,1.34
2022-12-15T10:55:32.923Z,1.34
2022-12-15T10:57:12.861Z,1.34
2022-12-15T10:58:52.451Z,1.33
2022-12-15T11:00:32.226Z,1.35
2022-12-15T11:02:11.992Z,1.33
2022-12-15T11:03:51.906Z,1.32
2022-12-15T11:05:31.724Z,1.32
2022-12-15T11:07:11.453Z,1.32
2022-12-15T11:08:51.243Z,1.33
2022-12-15T11:10:31.019Z,1.33
2022-12-15T11:12:10.775Z,1.34
2022-12-15T11:13:50.556Z,1.31
2022-12-15T11:15:30.316Z,1.33
2022-12-15T11:17:10.122Z,1.31
2022-12-15T11:18:49.926Z,1.33
2022-12-15T11:20:29.654Z,1.32
2022-12-15T11:22:09.398Z,1.32
2022-12-15T11:23:49.178Z,1.32
2022-12-15T11:25:28.945Z,1.34
2022-12-15T11:27:08.727Z,1.31
2022-12-15T11:28:48.544Z,1.3
2022-12-15T11:30:28.255Z,1.3
2022-12-15T11:32:08.043Z,1.33
2022-12-15T11:33:47.790Z,1.3
2022-12-15T11:35:27.392Z,1.29
2022-12-15T11:37:07.288Z,1.32
2022-12-15T11:38:47.090Z,1.28
2022-12-15T11:40:26.793Z,1.32
2022-12-15T11:42:06.564Z,1.33
2022-12-15T11:43:46.431Z,1.22
2022-12-15T11:45:26.230Z,1.3
2022-12-15T11:47:05.953Z,1.29
2022-12-15T11:48:45.744Z,1.29
2022-12-15T11:50:25.521Z,1.32
2022-12-15T11:52:05.281Z,0.01
2022-12-15T11:53:45.091Z,0.34
2022-12-15T11:55:24.788Z,0.47
2022-12-15T11:57:04.573Z,0.71
2022-12-15T11:58:44.315Z,0.69
2022-12-15T12:00:24.063Z,0.68
2022-12-15T12:02:03.931Z,0.69
2022-12-15T12:03:43.674Z,0.64
2022-12-15T12:05:23.418Z,0.7
2022-12-15T12:07:03.168Z,0.68
2022-12-15T12:08:42.929Z,0.68
2022-12-15T12:10:22.725Z,0.63
2022-12-15T12:12:02.490Z,0.67
2022-12-15T12:13:42.285Z,0.7
2022-12-15T12:15:22.068Z,0.71
2022-12-15T12:17:01.826Z,0.72
2022-12-15T12:18:41.649Z,0.68
2022-12-15T12:20:21.299Z,0.69
2022-12-15T12:22:01.113Z,0.66
2022-12-15T12:23:40.921Z,0.71
2022-12-15T12:25:20.711Z,0.72
2022-12-15T12:27:00.494Z,0.71
2022-12-15T12:28:40.182Z,0.7
2022-12-15T12:30:19.998Z,0.67
2022-12-15T12:31:59.798Z,0.69
2022-12-15T12:33:39.587Z,0.7
2022-12-15T12:35:19.198Z,0.69
2022-12-15T12:36:58.998Z,0.7
2022-12-15T12:38:38.661Z,0.7
2022-12-15T12:40:18.447Z,0.68
2022-12-15T12:41:58.367Z,0.68
2022-12-15T12:43:37.982Z,0.7
2022-12-15T12:45:17.926Z,0.67
2022-12-15T12:46:57.722Z,0.67
2022-12-15T12:48:37.444Z,0.68
2022-12-15T12:50:17.213Z,0.69
2022-12-15T12:51:57.038Z,0.68
2022-12-15T12:53:36.600Z,0.67
2022-12-15T12:55:16.529Z,0.68
2022-12-15T12:56:56.297Z,0.66
2022-12-15T12:58:36.093Z,0.67
2022-12-15T13:00:15.690Z,0.67
2022-12-15T13:01:55.609Z,0.68
2022-12-15T13:03:35.325Z,0.68
2022-12-15T13:05:15.152Z,0.68
2022-12-15T13:06:54.926Z,0.67
2022-12-15T13:08:34.688Z,0.65
2022-12-15T13:10:14.450Z,0.65
2022-12-15T13:11:54.265Z,0.65
2022-12-15T13:13:34.027Z,0.66
2022-12-15T13:15:13.815Z,0.68
2022-12-15T13:16:53.589Z,0.68
2022-12-15T13:18:33.181Z,0.67
2022-12-15T13:20:13.145Z,0.65
2022-12-15T13:21:52.822Z,0.66
2022-12-15T13:23:32.443Z,0.66
2022-12-15T13:25:12.387Z,0.67
2022-12-15T13:26:52.144Z,0.66
2022-12-15T13:28:31.991Z,0.67
2022-12-15T13:30:11.726Z,0.63
2022-12-15T13:31:51.530Z,0.63
2022-12-15T13:33:31.284Z,0.66
2022-12-15T13:35:11.016Z,0.67
2022-12-15T13:36:50.854Z,0.64
2022-12-15T13:38:30.588Z,0.66
2022-12-15T13:40:10.295Z,0.65
2022-12-15T13:41:50.099Z,0.65
2022-12-15T13:43:29.686Z,0.64
2022-12-15T13:45:09.599Z,0.66
2022-12-15T13:46:49.420Z,0.64
2022-12-15T13:48:29.190Z,0.68
2022-12-15T13:50:08.932Z,0.66
2022-12-15T13:51:48.660Z,0.66
2022-12-15T13:53:28.301Z,0.65
2022-12-15T13:55:08.257Z,0.64
2022-12-15T13:56:48.038Z,0.67
2022-12-15T13:58:27.817Z,0.63
2022-12-15T14:00:07.582Z,0.66
2022-12-15T14:01:47.353Z,0.66
2022-12-15T14:03:27.082Z,0.64
2022-12-15T14:05:06.893Z,0.66
2022-12-15T14:06:46.693Z,0.64
2022-12-15T14:08:26.319Z,0.64
2022-12-15T14:10:06.248Z,0.63
2022-12-15T14:11:45.992Z,0.63
2022-12-15T14:13:25.608Z,0.65
2022-12-15T14:15:05.331Z,0.64
2022-12-15T14:16:45.339Z,0.61
2022-12-15T14:18:25.069Z,0.39
2022-12-15T14:20:04.744Z,0.27
2022-12-15T14:21:44.579Z,0.26
2022-12-15T14:23:24.175Z,0.2
2022-12-15T14:25:04.083Z,0.16
2022-12-15T14:26:43.829Z,0.16
2022-12-15T14:28:23.481Z,0.19
2022-12-15T14:30:03.255Z,0.2
2022-12-15T14:31:43.165Z,0.12
2022-12-15T14:33:22.798Z,0.11
2022-12-15T14:35:02.715Z,0.12
2022-12-15T14:36:42.528Z,0.11
2022-12-15T14:38:22.303Z,0.08
2022-12-15T14:40:02.074Z,0.04
2022-12-15T14:41:41.861Z,0.07
2022-12-15T14:43:21.415Z,0.08
2022-12-15T14:45:01.411Z,0.06
2022-12-15T14:46:41.129Z,0.06
2022-12-15T14:48:20.872Z,0.03
2022-12-15T14:50:00.651Z,0.03
2022-12-15T14:51:40.433Z,0.02
2022-12-15T14:53:20.273Z,0.01
2022-12-15T14:54:59.998Z,0
2022-12-15T14:56:39.782Z,0.01
2022-12-15T14:58:19.481Z,0
2022-12-15T14:59:59.270Z,0
2022-12-15T15:01:39.055Z,0
2022-12-15T15:03:18.634Z,0
2022-12-15T15:04:58.403Z,0
2022-12-15T15:06:38.325Z,0
2022-12-15T15:08:18.017Z,0
2022-12-15T15:09:57.798Z,0
2022-12-15T15:11:37.526Z,0
2022-12-15T15:13:17.239Z,0
2022-12-15T15:14:57.012Z,0
2022-12-15T15:16:36.772Z,0
2022-12-15T15:18:16.564Z,0
2022-12-15T15:19:56.324Z,0
2022-12-15T15:21:36.080Z,0
2022-12-15T15:23:15.841Z,0
2022-12-15T15:24:55.623Z,0
2022-12-15T15:26:35.532Z,0
2022-12-15T15:28:15.153Z,0
2022-12-15T15:29:55.046Z,0
2022-12-15T15:31:34.680Z,0
2022-12-15T15:33:14.443Z,0
2022-12-15T15:34:54.232Z,0
2022-12-15T15:36:33.969Z,0
2022-12-15T15:38:13.743Z,0
2022-12-15T15:39:53.520Z,0
2022-12-15T15:41:33.293Z,0
2022-12-15T15:43:13.063Z,0
2022-12-15T15:44:52.848Z,0
2022-12-15T15:46:32.602Z,0
2022-12-15T15:48:12.350Z,0
2022-12-15T15:49:52.246Z,0
2022-12-15T15:51:31.929Z,0
2022-12-15T15:53:11.659Z,0
2022-12-15T15:54:51.427Z,0
2022-12-15T15:56:31.173Z,0
2022-12-15T15:58:10.959Z,0
2022-12-15T15:59:50.874Z,0
2022-12-15T16:01:30.580Z,0
2022-12-15T16:03:10.266Z,0
2022-12-15T16:04:50.029Z,0
2022-12-15T16:06:29.804Z,0
2022-12-15T16:08:09.574Z,0
2022-12-15T16:09:49.358Z,0
2022-12-15T16:11:29.121Z,0
2022-12-15T16:13:08.922Z,0
2022-12-15T16:14:48.619Z,0
2022-12-15T16:16:28.393Z,0
2022-12-15T16:18:08.152Z,0
2022-12-15T16:19:47.926Z,0
2022-12-15T16:21:27.712Z,0
2022-12-15T16:23:07.457Z,0
2022-12-15T16:24:47.262Z,0
2022-12-15T16:26:27.013Z,0
2022-12-15T16:28:06.762Z,0
2022-12-15T16:29:46.615Z,0
2022-12-15T16:31:26.329Z,0
2022-12-15T16:33:06.070Z,0
2022-12-15T16:34:45.916Z,0
2022-12-15T16:36:25.604Z,0
2022-12-15T16:38:05.442Z,0
2022-12-15T16:39:45.201Z,0
2022-12-15T16:41:24.885Z,0
2022-12-15T16:43:04.671Z,0
2022-12-15T16:44:44.431Z,0
2022-12-15T16:46:24.209Z,0
2022-12-15T16:48:04.115Z,0
2022-12-15T16:49:43.859Z,0
2022-12-15T16:51:23.513Z,0
2022-12-15T16:53:03.277Z,0
2022-12-15T16:54:43.078Z,0
2022-12-15T16:56:22.806Z,0
2022-12-15T16:58:02.583Z,0
2022-12-15T16:59:42.516Z,0
2022-12-15T17:03:02.008Z,0
2022-12-15T17:04:41.709Z,0
2022-12-15T17:06:21.450Z,0
2022-12-15T17:08:01.257Z,0
2022-12-15T17:09:41.041Z,0
2022-12-15T17:11:20.739Z,0
2022-12-15T17:13:00.512Z,0
2022-12-15T17:14:40.281Z,0
2022-12-15T17:16:20.041Z,0
2022-12-15T17:17:59.897Z,0
2022-12-15T17:19:39.598Z,0
2022-12-15T17:21:19.365Z,0
2022-12-15T17:22:59.165Z,0
2022-12-15T17:24:38.949Z,0
2022-12-15T17:26:18.668Z,0
2022-12-15T17:27:58.503Z,0
2022-12-15T17:29:38.289Z,0
2022-12-15T17:31:17.973Z,0
2022-12-15T17:32:57.730Z,0
2022-12-15T17:34:37.663Z,0
2022-12-15T17:36:17.356Z,0
2022-12-15T17:37:57.193Z,0
2022-12-15T17:39:36.913Z,0
2022-12-15T17:41:16.600Z,0
2022-12-15T17:42:56.368Z,0
2022-12-15T17:44:36.163Z,0
2022-12-15T17:46:15.910Z,0
2022-12-15T17:47:55.684Z,0
2022-12-15T17:49:35.456Z,0
2022-12-15T17:51:15.218Z,0
2022-12-15T17:52:55.001Z,0
2022-12-15T17:54:34.745Z,0
2022-12-15T17:57:54.369Z,0
2022-12-15T17:59:34.079Z,0
2022-12-15T18:01:13.887Z,0
2022-12-15T18:02:53.618Z,0
2022-12-15T18:04:33.375Z,0
2022-12-15T18:06:13.138Z,0
2022-12-15T18:07:52.914Z,0
2022-12-15T18:09:32.722Z,0
2022-12-15T18:11:12.439Z,0
2022-12-15T18:12:52.217Z,0
2022-12-15T18:14:31.985Z,0
2022-12-15T18:16:11.827Z,0
2022-12-15T18:17:51.528Z,0
2022-12-15T18:19:31.290Z,0
2022-12-15T18:21:11.055Z,0
2022-12-15T18:22:50.935Z,0
2022-12-15T18:24:30.722Z,0
2022-12-15T18:26:10.434Z,0
2022-12-15T18:27:50.126Z,0
2022-12-15T18:29:29.920Z,0
2022-12-15T18:31:09.656Z,0
2022-12-15T18:32:49.417Z,0
2022-12-15T18:34:29.221Z,0
2022-12-15T18:36:08.964Z,0
2022-12-15T18:37:48.863Z,0
2022-12-15T18:39:28.568Z,0
2022-12-15T18:41:08.271Z,0
2022-12-15T18:42:48.149Z,0
2022-12-15T18:44:27.911Z,0
2022-12-15T18:46:07.579Z,0
2022-12-15T18:47:47.348Z,0
2022-12-15T18:49:27.239Z,0
2022-12-15T18:51:06.921Z,0
2022-12-15T18:52:46.671Z,0
2022-12-15T18:54:26.499Z,0
2022-12-15T18:56:06.255Z,0
2022-12-15T18:57:45.986Z,0
2022-12-15T18:59:25.802Z,0
2022-12-15T19:01:05.596Z,0
2022-12-15T19:02:45.377Z,0
2022-12-15T19:06:04.825Z,0
2022-12-15T19:07:44.591Z,0
2022-12-15T19:09:24.395Z,0
2022-12-15T19:11:04.126Z,0
2022-12-15T19:12:43.928Z,0
2022-12-15T19:14:23.714Z,0
2022-12-15T19:16:03.447Z,0
2022-12-15T19:17:43.222Z,0
2022-12-15T19:19:23.015Z,0
2022-12-15T19:21:02.740Z,0
2022-12-15T19:22:42.513Z,0
2022-12-15T19:24:22.310Z,0
2022-12-15T19:26:02.053Z,0
2022-12-15T19:27:41.868Z,0
2022-12-15T19:29:21.599Z,0
2022-12-15T19:31:01.531Z,0
2022-12-15T19:32:41.134Z,0
2022-12-15T19:34:20.905Z,0
2022-12-15T19:39:20.221Z,0
2022-12-15T19:40:59.985Z,0
2022-12-15T19:42:39.756Z,0
2022-12-15T19:44:19.534Z,0
2022-12-15T19:45:59.456Z,0
2022-12-15T19:47:39.107Z,0
2022-12-15T19:49:18.847Z,0
2022-12-15T19:50:58.684Z,0
2022-12-15T19:52:38.455Z,0
2022-12-15T19:54:18.139Z,0
2022-12-15T19:55:57.984Z,0
2022-12-15T19:57:37.695Z,0
2022-12-15T19:59:17.458Z,0
2022-12-15T20:00:57.306Z,0
2022-12-15T20:02:37.114Z,0
2022-12-15T20:04:16.781Z,0
2022-12-15T20:05:56.564Z,0
2022-12-15T20:07:36.312Z,0
2022-12-15T20:09:16.171Z,0
2022-12-15T20:10:55.877Z,0
2022-12-15T20:12:35.664Z,0
2022-12-15T20:14:15.445Z,0
2022-12-15T20:15:55.156Z,0
2022-12-15T20:17:34.937Z,0
2022-12-15T20:19:14.735Z,0
2022-12-15T20:22:34.325Z,0
2022-12-15T20:24:14.153Z,0
2022-12-15T20:25:53.852Z,0
2022-12-15T20:27:33.562Z,0
2022-12-15T20:29:13.331Z,0
2022-12-15T20:30:53.103Z,0
2022-12-15T20:32:32.860Z,0
2022-12-15T20:34:12.624Z,0
2022-12-15T20:35:52.475Z,0
2022-12-15T20:37:32.177Z,0
2022-12-15T20:39:11.942Z,0
2022-12-15T20:40:51.713Z,0
2022-12-15T20:42:31.475Z,0
2022-12-15T20:44:11.338Z,0
2022-12-15T20:45:51.014Z,0
2022-12-15T20:47:30.859Z,0
2022-12-15T20:49:10.677Z,0
2022-12-15T20:50:50.399Z,0
2022-12-15T20:52:30.138Z,0
2022-12-15T20:54:09.924Z,0
2022-12-15T20:55:49.784Z,0
2022-12-15T20:57:29.427Z,0
2022-12-15T20:59:09.291Z,0
2022-12-15T21:02:28.835Z,0
2022-12-15T21:04:08.482Z,0
2022-12-15T21:05:48.247Z,0
2022-12-15T21:07:28.114Z,0
2022-12-15T21:09:07.823Z,0
2022-12-15T21:10:47.561Z,0
2022-12-15T21:12:27.342Z,0
2022-12-15T21:14:07.146Z,0
2022-12-15T21:15:46.877Z,0
2022-12-15T21:17:26.798Z,0
2022-12-15T21:19:06.589Z,0
2022-12-15T21:20:46.323Z,0
2022-12-15T21:22:26.182Z,0
2022-12-15T21:24:05.890Z,0
2022-12-15T21:27:25.469Z,0
2022-12-15T21:29:05.214Z,0
2022-12-15T21:30:45.007Z,0
2022-12-15T21:32:24.738Z,0
2022-12-15T21:34:04.478Z,0
2022-12-15T21:35:44.249Z,0
2022-12-15T21:37:24.112Z,0
2022-12-15T21:39:03.813Z,0
2022-12-15T21:40:43.555Z,0
2022-12-15T21:42:23.337Z,0
2022-12-15T21:44:03.106Z,0
2022-12-15T21:45:42.862Z,0
2022-12-15T21:47:22.705Z,0
2022-12-15T21:49:02.439Z,0
2022-12-15T21:50:42.031Z,0
2022-12-15T21:52:21.931Z,0
2022-12-15T21:54:01.729Z,0
2022-12-15T21:55:41.519Z,0
2022-12-15T21:57:21.265Z,0
2022-12-15T21:59:01.048Z,0
2022-12-15T22:00:40.765Z,0
2022-12-15T22:02:20.422Z,0
2022-12-15T22:04:00.213Z,0
2022-12-15T22:05:39.948Z,0
2022-12-15T22:07:19.964Z,0
2022-12-15T22:08:59.653Z,0
2022-12-15T22:10:39.337Z,0
2022-12-15T22:12:19.217Z,0
2022-12-15T22:13:58.989Z,0
2022-12-15T22:15:38.563Z,0
2022-12-15T22:17:18.606Z,0
2022-12-15T22:18:58.335Z,0
2022-12-15T22:20:37.966Z,0
2022-12-15T22:22:17.825Z,0
2022-12-15T22:23:57.562Z,0
2022-12-15T22:25:37.393Z,0
2022-12-15T22:27:17.094Z,0
2022-12-15T22:28:56.893Z,0
2022-12-15T22:30:36.652Z,0
2022-12-15T22:32:16.297Z,0
2022-12-15T22:33:56.177Z,0
2022-12-15T22:35:35.945Z,0
2022-12-15T22:37:15.742Z,0
2022-12-15T22:38:55.354Z,0
2022-12-15T22:40:35.122Z,0
2022-12-15T22:42:15.045Z,0
2022-12-15T22:43:54.812Z,0
2022-12-15T22:45:34.436Z,0
2022-12-15T22:47:14.185Z,0
2022-12-15T22:48:54.119Z,0
2022-12-15T22:50:33.863Z,0
2022-12-15T22:52:13.650Z,0
2022-12-15T22:53:53.434Z,0
2022-12-15T22:55:33.216Z,0
2022-12-15T22:57:12.958Z,0
2022-12-15T22:58:52.826Z,0
2022-12-15T23:00:32.464Z,0
2022-12-15T23:02:12.279Z,0
2022-12-15T23:03:52.073Z,0
2022-12-15T23:05:31.814Z,0
2022-12-15T23:07:11.606Z,0
2022-12-15T23:08:51.603Z,0
2022-12-15T23:10:31.146Z,0
2022-12-15T23:12:10.907Z,0
2022-12-15T23:13:50.680Z,0
2022-12-15T23:15:30.403Z,0
2022-12-15T23:17:10.114Z,0
2022-12-15T23:18:49.969Z,0
2022-12-15T23:20:29.776Z,0
2022-12-15T23:22:09.524Z,0
2022-12-15T23:23:49.287Z,0
2022-12-15T23:25:29.072Z,0
2022-12-15T23:27:08.829Z,0
2022-12-15T23:30:28.387Z,0
2022-12-15T23:32:08.135Z,0
2022-12-15T23:33:47.905Z,0
2022-12-15T23:35:27.720Z,0
2022-12-15T23:37:07.379Z,0
2022-12-15T23:38:47.213Z,0
2022-12-15T23:40:27.040Z,0
2022-12-15T23:42:06.725Z,0
2022-12-15T23:43:46.567Z,0
2022-12-15T23:45:26.113Z,0
2022-12-15T23:47:05.993Z,0
2022-12-15T23:48:45.813Z,0
2022-12-15T23:50:25.614Z,0
2022-12-15T23:52:05.388Z,0
2022-12-15T23:53:45.186Z,0
2022-12-15T23:55:24.909Z,0
2022-12-15T23:57:04.688Z,0
2022-12-15T23:58:44.457Z,0
